sensor_id;sensor_type;location;lat;lon;timestamp;P1;durP1;ratioP1;P2;durP2;ratioP2
28246;SDS011;66191;53.178;22.058;2023-08-21T00:00:23;20.90;;;18.65;;
28246;SDS011;66191;53.178;22.058;2023-08-21T00:03:19;19.55;;;16.67;;
28246;SDS011;66191;53.178;22.058;2023-08-21T00:05:56;24.20;;;19.08;;
28246;SDS011;66191;53.178;22.058;2023-08-21T00:08:30;21.98;;;17.55;;
28246;SDS011;66191;53.178;22.058;2023-08-21T00:11:03;22.73;;;20.02;;
28246;SDS011;66191;53.178;22.058;2023-08-21T00:13:34;21.08;;;18.80;;
28246;SDS011;66191;53.178;22.058;2023-08-21T00:16:18;21.83;;;19.52;;
28246;SDS011;66191;53.178;22.058;2023-08-21T00:18:54;22.95;;;20.52;;
28246;SDS011;66191;53.178;22.058;2023-08-21T00:21:29;22.00;;;19.75;;
28246;SDS011;66191;53.178;22.058;2023-08-21T00:24:04;19.95;;;17.13;;
28246;SDS011;66191;53.178;22.058;2023-08-21T00:26:47;20.88;;;18.63;;
28246;SDS011;66191;53.178;22.058;2023-08-21T00:29:24;19.50;;;17.50;;
28246;SDS011;66191;53.178;22.058;2023-08-21T00:31:59;20.60;;;18.52;;
28246;SDS011;66191;53.178;22.058;2023-08-21T00:34:35;19.17;;;17.17;;
28246;SDS011;66191;53.178;22.058;2023-08-21T00:37:11;18.63;;;16.75;;
28246;SDS011;66191;53.178;22.058;2023-08-21T00:39:50;16.85;;;15.05;;
28246;SDS011;66191;53.178;22.058;2023-08-21T00:42:22;20.75;;;18.55;;
28246;SDS011;66191;53.178;22.058;2023-08-21T00:44:55;19.77;;;17.70;;
28246;SDS011;66191;53.178;22.058;2023-08-21T00:47:29;19.40;;;17.48;;
28246;SDS011;66191;53.178;22.058;2023-08-21T00:50:03;21.55;;;18.08;;
28246;SDS011;66191;53.178;22.058;2023-08-21T00:52:46;20.23;;;18.05;;
28246;SDS011;66191;53.178;22.058;2023-08-21T00:55:26;19.17;;;17.23;;
28246;SDS011;66191;53.178;22.058;2023-08-21T00:57:59;20.05;;;17.13;;
28246;SDS011;66191;53.178;22.058;2023-08-21T01:00:36;22.17;;;19.50;;
28246;SDS011;66191;53.178;22.058;2023-08-21T01:03:13;22.52;;;18.08;;
28246;SDS011;66191;53.178;22.058;2023-08-21T01:05:50;21.67;;;18.35;;
28246;SDS011;66191;53.178;22.058;2023-08-21T01:08:35;22.40;;;19.60;;
28246;SDS011;66191;53.178;22.058;2023-08-21T01:11:14;19.90;;;16.98;;
28246;SDS011;66191;53.178;22.058;2023-08-21T01:13:55;24.27;;;19.05;;
28246;SDS011;66191;53.178;22.058;2023-08-21T01:16:40;19.02;;;17.05;;
28246;SDS011;66191;53.178;22.058;2023-08-21T01:19:16;21.48;;;18.73;;
28246;SDS011;66191;53.178;22.058;2023-08-21T01:22:03;20.05;;;17.77;;
28246;SDS011;66191;53.178;22.058;2023-08-21T01:24:38;22.33;;;20.02;;
28246;SDS011;66191;53.178;22.058;2023-08-21T01:27:12;21.23;;;19.02;;
28246;SDS011;66191;53.178;22.058;2023-08-21T01:29:50;22.90;;;17.83;;
28246;SDS011;66191;53.178;22.058;2023-08-21T01:32:23;21.33;;;19.13;;
28246;SDS011;66191;53.178;22.058;2023-08-21T01:35:02;22.35;;;18.45;;
28246;SDS011;66191;53.178;22.058;2023-08-21T01:37:35;22.88;;;18.73;;
28246;SDS011;66191;53.178;22.058;2023-08-21T01:40:10;20.08;;;17.65;;
28246;SDS011;66191;53.178;22.058;2023-08-21T01:42:41;20.77;;;18.40;;
28246;SDS011;66191;53.178;22.058;2023-08-21T01:45:16;19.17;;;17.20;;
28246;SDS011;66191;53.178;22.058;2023-08-21T01:47:47;19.27;;;17.27;;
28246;SDS011;66191;53.178;22.058;2023-08-21T01:50:21;23.20;;;18.40;;
28246;SDS011;66191;53.178;22.058;2023-08-21T01:52:55;20.27;;;17.75;;
28246;SDS011;66191;53.178;22.058;2023-08-21T01:55:29;22.25;;;18.13;;
28246;SDS011;66191;53.178;22.058;2023-08-21T01:58:07;21.55;;;19.25;;
28246;SDS011;66191;53.178;22.058;2023-08-21T02:00:41;22.15;;;18.85;;
28246;SDS011;66191;53.178;22.058;2023-08-21T02:03:26;20.50;;;18.30;;
28246;SDS011;66191;53.178;22.058;2023-08-21T02:05:58;21.67;;;19.48;;
28246;SDS011;66191;53.178;22.058;2023-08-21T02:08:41;19.10;;;17.13;;
28246;SDS011;66191;53.178;22.058;2023-08-21T02:11:15;22.17;;;18.98;;
28246;SDS011;66191;53.178;22.058;2023-08-21T02:13:46;23.13;;;20.70;;
28246;SDS011;66191;53.178;22.058;2023-08-21T02:16:18;22.20;;;19.42;;
28246;SDS011;66191;53.178;22.058;2023-08-21T02:18:53;24.55;;;18.75;;
28246;SDS011;66191;53.178;22.058;2023-08-21T02:21:25;27.85;;;22.02;;
28246;SDS011;66191;53.178;22.058;2023-08-21T02:23:56;21.90;;;19.67;;
28246;SDS011;66191;53.178;22.058;2023-08-21T02:26:31;22.33;;;19.83;;
28246;SDS011;66191;53.178;22.058;2023-08-21T02:29:05;20.58;;;18.27;;
28246;SDS011;66191;53.178;22.058;2023-08-21T02:31:37;23.15;;;20.35;;
28246;SDS011;66191;53.178;22.058;2023-08-21T02:34:09;24.95;;;20.90;;
28246;SDS011;66191;53.178;22.058;2023-08-21T02:36:46;24.52;;;19.98;;
28246;SDS011;66191;53.178;22.058;2023-08-21T02:39:19;27.48;;;22.10;;
28246;SDS011;66191;53.178;22.058;2023-08-21T02:41:55;23.75;;;20.35;;
28246;SDS011;66191;53.178;22.058;2023-08-21T02:44:29;21.92;;;19.63;;
28246;SDS011;66191;53.178;22.058;2023-08-21T02:47:05;25.23;;;20.65;;
28246;SDS011;66191;53.178;22.058;2023-08-21T02:49:40;19.20;;;17.17;;
28246;SDS011;66191;53.178;22.058;2023-08-21T02:52:12;27.55;;;20.50;;
28246;SDS011;66191;53.178;22.058;2023-08-21T02:54:43;26.02;;;19.88;;
28246;SDS011;66191;53.178;22.058;2023-08-21T02:57:17;20.77;;;18.40;;
28246;SDS011;66191;53.178;22.058;2023-08-21T02:59:50;24.75;;;21.05;;
28246;SDS011;66191;53.178;22.058;2023-08-21T03:02:30;24.17;;;20.25;;
28246;SDS011;66191;53.178;22.058;2023-08-21T03:05:05;22.52;;;18.58;;
28246;SDS011;66191;53.178;22.058;2023-08-21T03:07:39;19.88;;;17.17;;
28246;SDS011;66191;53.178;22.058;2023-08-21T03:10:10;23.95;;;20.00;;
28246;SDS011;66191;53.178;22.058;2023-08-21T03:12:49;20.98;;;17.95;;
28246;SDS011;66191;53.178;22.058;2023-08-21T03:15:30;23.23;;;20.73;;
28246;SDS011;66191;53.178;22.058;2023-08-21T03:18:04;22.60;;;19.90;;
28246;SDS011;66191;53.178;22.058;2023-08-21T03:20:38;26.55;;;19.50;;
28246;SDS011;66191;53.178;22.058;2023-08-21T03:23:22;26.83;;;20.23;;
28246;SDS011;66191;53.178;22.058;2023-08-21T03:25:55;21.73;;;19.45;;
28246;SDS011;66191;53.178;22.058;2023-08-21T03:28:32;21.02;;;17.40;;
28246;SDS011;66191;53.178;22.058;2023-08-21T03:31:07;19.02;;;17.00;;
28246;SDS011;66191;53.178;22.058;2023-08-21T03:33:38;22.05;;;18.83;;
28246;SDS011;66191;53.178;22.058;2023-08-21T03:36:14;24.27;;;21.42;;
28246;SDS011;66191;53.178;22.058;2023-08-21T03:38:54;20.73;;;18.52;;
28246;SDS011;66191;53.178;22.058;2023-08-21T03:41:36;20.80;;;18.58;;
28246;SDS011;66191;53.178;22.058;2023-08-21T03:44:13;26.52;;;17.15;;
28246;SDS011;66191;53.178;22.058;2023-08-21T03:46:47;21.85;;;17.92;;
28246;SDS011;66191;53.178;22.058;2023-08-21T03:49:30;21.47;;;18.37;;
28246;SDS011;66191;53.178;22.058;2023-08-21T03:52:08;21.37;;;19.10;;
28246;SDS011;66191;53.178;22.058;2023-08-21T03:54:47;20.77;;;17.60;;
28246;SDS011;66191;53.178;22.058;2023-08-21T03:57:18;21.45;;;19.27;;
28246;SDS011;66191;53.178;22.058;2023-08-21T03:59:54;26.60;;;20.77;;
28246;SDS011;66191;53.178;22.058;2023-08-21T04:02:27;22.45;;;18.05;;
28246;SDS011;66191;53.178;22.058;2023-08-21T04:04:58;20.60;;;17.45;;
28246;SDS011;66191;53.178;22.058;2023-08-21T04:07:30;23.60;;;18.13;;
28246;SDS011;66191;53.178;22.058;2023-08-21T04:10:05;22.65;;;19.33;;
28246;SDS011;66191;53.178;22.058;2023-08-21T04:12:39;21.08;;;17.00;;
28246;SDS011;66191;53.178;22.058;2023-08-21T04:15:13;19.42;;;16.85;;
28246;SDS011;66191;53.178;22.058;2023-08-21T04:17:47;20.88;;;16.33;;
28246;SDS011;66191;53.178;22.058;2023-08-21T04:20:22;23.48;;;19.67;;
28246;SDS011;66191;53.178;22.058;2023-08-21T04:22:55;21.90;;;19.67;;
28246;SDS011;66191;53.178;22.058;2023-08-21T04:25:30;25.83;;;20.13;;
28246;SDS011;66191;53.178;22.058;2023-08-21T04:28:04;19.73;;;17.65;;
28246;SDS011;66191;53.178;22.058;2023-08-21T04:30:43;18.50;;;16.63;;
28246;SDS011;66191;53.178;22.058;2023-08-21T04:33:24;18.55;;;16.27;;
28246;SDS011;66191;53.178;22.058;2023-08-21T04:36:01;22.33;;;19.80;;
28246;SDS011;66191;53.178;22.058;2023-08-21T04:38:34;16.20;;;14.50;;
28246;SDS011;66191;53.178;22.058;2023-08-21T04:41:09;21.45;;;16.45;;
28246;SDS011;66191;53.178;22.058;2023-08-21T04:46:28;18.08;;;15.70;;
28246;SDS011;66191;53.178;22.058;2023-08-21T04:48:59;20.25;;;16.70;;
28246;SDS011;66191;53.178;22.058;2023-08-21T04:51:34;21.38;;;16.38;;
28246;SDS011;66191;53.178;22.058;2023-08-21T04:54:10;21.35;;;16.75;;
28246;SDS011;66191;53.178;22.058;2023-08-21T04:56:49;19.80;;;17.70;;
28246;SDS011;66191;53.178;22.058;2023-08-21T04:59:23;25.25;;;18.38;;
28246;SDS011;66191;53.178;22.058;2023-08-21T05:02:04;21.98;;;18.95;;
28246;SDS011;66191;53.178;22.058;2023-08-21T05:04:50;25.30;;;19.83;;
28246;SDS011;66191;53.178;22.058;2023-08-21T05:07:25;20.77;;;17.23;;
28246;SDS011;66191;53.178;22.058;2023-08-21T05:09:59;22.02;;;17.10;;
28246;SDS011;66191;53.178;22.058;2023-08-21T05:12:37;20.58;;;17.20;;
28246;SDS011;66191;53.178;22.058;2023-08-21T05:15:12;17.50;;;15.80;;
28246;SDS011;66191;53.178;22.058;2023-08-21T05:20:53;18.98;;;17.00;;
28246;SDS011;66191;53.178;22.058;2023-08-21T05:23:29;20.13;;;16.40;;
28246;SDS011;66191;53.178;22.058;2023-08-21T05:26:07;22.42;;;17.38;;
28246;SDS011;66191;53.178;22.058;2023-08-21T05:28:46;18.65;;;16.58;;
28246;SDS011;66191;53.178;22.058;2023-08-21T05:31:17;25.15;;;17.20;;
28246;SDS011;66191;53.178;22.058;2023-08-21T05:34:06;19.83;;;17.25;;
28246;SDS011;66191;53.178;22.058;2023-08-21T05:36:42;19.70;;;17.63;;
28246;SDS011;66191;53.178;22.058;2023-08-21T05:39:13;25.67;;;21.05;;
28246;SDS011;66191;53.178;22.058;2023-08-21T05:41:49;27.35;;;22.77;;
28246;SDS011;66191;53.178;22.058;2023-08-21T05:44:24;25.60;;;21.88;;
28246;SDS011;66191;53.178;22.058;2023-08-21T05:47:07;27.27;;;23.17;;
28246;SDS011;66191;53.178;22.058;2023-08-21T05:49:41;31.77;;;24.83;;
28246;SDS011;66191;53.178;22.058;2023-08-21T05:52:12;27.67;;;24.75;;
28246;SDS011;66191;53.178;22.058;2023-08-21T05:54:46;29.05;;;25.42;;
28246;SDS011;66191;53.178;22.058;2023-08-21T05:57:22;29.05;;;23.98;;
28246;SDS011;66191;53.178;22.058;2023-08-21T05:59:56;27.70;;;23.77;;
28246;SDS011;66191;53.178;22.058;2023-08-21T06:02:40;35.42;;;26.27;;
28246;SDS011;66191;53.178;22.058;2023-08-21T06:05:37;30.63;;;23.17;;
28246;SDS011;66191;53.178;22.058;2023-08-21T06:08:09;44.58;;;30.33;;
28246;SDS011;66191;53.178;22.058;2023-08-21T06:10:44;38.63;;;28.88;;
28246;SDS011;66191;53.178;22.058;2023-08-21T06:13:15;34.15;;;27.13;;
28246;SDS011;66191;53.178;22.058;2023-08-21T06:15:49;43.25;;;29.33;;
28246;SDS011;66191;53.178;22.058;2023-08-21T06:18:25;45.25;;;30.88;;
28246;SDS011;66191;53.178;22.058;2023-08-21T06:21:01;40.55;;;29.58;;
28246;SDS011;66191;53.178;22.058;2023-08-21T06:23:40;40.67;;;29.50;;
28246;SDS011;66191;53.178;22.058;2023-08-21T06:26:18;43.20;;;32.33;;
28246;SDS011;66191;53.178;22.058;2023-08-21T06:28:51;42.28;;;31.10;;
28246;SDS011;66191;53.178;22.058;2023-08-21T06:31:25;41.80;;;31.58;;
28246;SDS011;66191;53.178;22.058;2023-08-21T06:33:58;44.38;;;32.70;;
28246;SDS011;66191;53.178;22.058;2023-08-21T06:36:36;41.97;;;30.98;;
28246;SDS011;66191;53.178;22.058;2023-08-21T06:39:09;43.60;;;32.08;;
28246;SDS011;66191;53.178;22.058;2023-08-21T06:41:41;44.00;;;32.00;;
28246;SDS011;66191;53.178;22.058;2023-08-21T06:44:17;36.95;;;28.95;;
28246;SDS011;66191;53.178;22.058;2023-08-21T06:46:59;42.15;;;31.33;;
28246;SDS011;66191;53.178;22.058;2023-08-21T06:49:31;42.72;;;29.85;;
28246;SDS011;66191;53.178;22.058;2023-08-21T06:52:10;48.25;;;33.72;;
28246;SDS011;66191;53.178;22.058;2023-08-21T06:54:57;43.50;;;31.83;;
28246;SDS011;66191;53.178;22.058;2023-08-21T06:57:38;41.10;;;31.38;;
28246;SDS011;66191;53.178;22.058;2023-08-21T07:00:13;41.00;;;28.95;;
28246;SDS011;66191;53.178;22.058;2023-08-21T07:02:44;45.20;;;30.45;;
28246;SDS011;66191;53.178;22.058;2023-08-21T07:05:16;37.53;;;28.15;;
28246;SDS011;66191;53.178;22.058;2023-08-21T07:07:52;39.28;;;28.80;;
28246;SDS011;66191;53.178;22.058;2023-08-21T07:10:23;41.13;;;29.35;;
28246;SDS011;66191;53.178;22.058;2023-08-21T07:12:55;41.05;;;28.63;;
28246;SDS011;66191;53.178;22.058;2023-08-21T07:15:32;44.45;;;28.70;;
28246;SDS011;66191;53.178;22.058;2023-08-21T07:18:09;47.70;;;29.55;;
28246;SDS011;66191;53.178;22.058;2023-08-21T07:23:56;47.40;;;29.88;;
28246;SDS011;66191;53.178;22.058;2023-08-21T07:26:27;37.78;;;26.17;;
28246;SDS011;66191;53.178;22.058;2023-08-21T07:29:01;44.45;;;30.42;;
28246;SDS011;66191;53.178;22.058;2023-08-21T07:31:36;44.65;;;28.42;;
28246;SDS011;66191;53.178;22.058;2023-08-21T07:34:07;41.30;;;28.23;;
28246;SDS011;66191;53.178;22.058;2023-08-21T07:36:40;37.33;;;25.85;;
28246;SDS011;66191;53.178;22.058;2023-08-21T07:39:17;31.92;;;23.85;;
28246;SDS011;66191;53.178;22.058;2023-08-21T07:41:48;38.65;;;25.05;;
28246;SDS011;66191;53.178;22.058;2023-08-21T07:44:20;39.53;;;26.52;;
28246;SDS011;66191;53.178;22.058;2023-08-21T07:46:52;37.67;;;25.73;;
28246;SDS011;66191;53.178;22.058;2023-08-21T07:49:23;30.60;;;22.90;;
28246;SDS011;66191;53.178;22.058;2023-08-21T07:51:59;28.98;;;21.20;;
28246;SDS011;66191;53.178;22.058;2023-08-21T07:54:37;31.13;;;20.48;;
28246;SDS011;66191;53.178;22.058;2023-08-21T07:57:11;25.00;;;20.23;;
28246;SDS011;66191;53.178;22.058;2023-08-21T07:59:43;28.48;;;21.27;;
28246;SDS011;66191;53.178;22.058;2023-08-21T08:02:14;26.00;;;21.05;;
28246;SDS011;66191;53.178;22.058;2023-08-21T08:04:48;30.85;;;22.40;;
28246;SDS011;66191;53.178;22.058;2023-08-21T08:07:19;31.05;;;21.38;;
28246;SDS011;66191;53.178;22.058;2023-08-21T08:09:56;29.25;;;22.33;;
28246;SDS011;66191;53.178;22.058;2023-08-21T08:12:27;27.77;;;20.50;;
28246;SDS011;66191;53.178;22.058;2023-08-21T08:15:05;29.08;;;21.80;;
28246;SDS011;66191;53.178;22.058;2023-08-21T08:17:40;29.48;;;22.67;;
28246;SDS011;66191;53.178;22.058;2023-08-21T08:20:14;29.95;;;22.05;;
28246;SDS011;66191;53.178;22.058;2023-08-21T08:22:45;31.33;;;21.27;;
28246;SDS011;66191;53.178;22.058;2023-08-21T08:25:20;30.50;;;22.65;;
28246;SDS011;66191;53.178;22.058;2023-08-21T08:27:51;29.02;;;21.95;;
28246;SDS011;66191;53.178;22.058;2023-08-21T08:30:24;26.90;;;20.08;;
28246;SDS011;66191;53.178;22.058;2023-08-21T08:33:01;27.60;;;19.58;;
28246;SDS011;66191;53.178;22.058;2023-08-21T08:35:43;29.48;;;21.38;;
28246;SDS011;66191;53.178;22.058;2023-08-21T08:38:17;25.45;;;20.40;;
28246;SDS011;66191;53.178;22.058;2023-08-21T08:40:55;30.63;;;22.73;;
28246;SDS011;66191;53.178;22.058;2023-08-21T08:43:28;26.65;;;21.40;;
28246;SDS011;66191;53.178;22.058;2023-08-21T08:46:02;31.75;;;20.95;;
28246;SDS011;66191;53.178;22.058;2023-08-21T08:48:34;27.00;;;20.92;;
28246;SDS011;66191;53.178;22.058;2023-08-21T08:51:09;29.65;;;20.63;;
28246;SDS011;66191;53.178;22.058;2023-08-21T08:53:41;27.42;;;20.65;;
28246;SDS011;66191;53.178;22.058;2023-08-21T08:56:25;28.90;;;21.65;;
28246;SDS011;66191;53.178;22.058;2023-08-21T08:59:05;27.25;;;20.85;;
28246;SDS011;66191;53.178;22.058;2023-08-21T09:01:41;24.50;;;19.30;;
28246;SDS011;66191;53.178;22.058;2023-08-21T09:04:16;23.02;;;19.38;;
28246;SDS011;66191;53.178;22.058;2023-08-21T09:06:51;29.17;;;21.88;;
28246;SDS011;66191;53.178;22.058;2023-08-21T09:09:37;24.70;;;18.95;;
28246;SDS011;66191;53.178;22.058;2023-08-21T09:12:19;22.73;;;18.83;;
28246;SDS011;66191;53.178;22.058;2023-08-21T09:14:51;27.55;;;19.63;;
28246;SDS011;66191;53.178;22.058;2023-08-21T09:17:22;25.20;;;20.25;;
28246;SDS011;66191;53.178;22.058;2023-08-21T09:19:53;28.77;;;18.90;;
28246;SDS011;66191;53.178;22.058;2023-08-21T09:22:28;24.75;;;18.85;;
28246;SDS011;66191;53.178;22.058;2023-08-21T09:25:00;28.27;;;20.20;;
28246;SDS011;66191;53.178;22.058;2023-08-21T09:27:42;33.97;;;20.52;;
28246;SDS011;66191;53.178;22.058;2023-08-21T09:30:15;25.42;;;19.23;;
28246;SDS011;66191;53.178;22.058;2023-08-21T09:32:54;25.48;;;20.02;;
28246;SDS011;66191;53.178;22.058;2023-08-21T09:35:37;29.65;;;19.35;;
28246;SDS011;66191;53.178;22.058;2023-08-21T09:38:09;29.30;;;21.77;;
28246;SDS011;66191;53.178;22.058;2023-08-21T09:40:41;34.47;;;21.98;;
28246;SDS011;66191;53.178;22.058;2023-08-21T09:43:17;25.73;;;19.33;;
28246;SDS011;66191;53.178;22.058;2023-08-21T09:45:54;24.65;;;19.23;;
28246;SDS011;66191;53.178;22.058;2023-08-21T09:48:26;26.67;;;19.65;;
28246;SDS011;66191;53.178;22.058;2023-08-21T09:51:00;25.30;;;19.38;;
28246;SDS011;66191;53.178;22.058;2023-08-21T09:53:32;27.63;;;20.20;;
28246;SDS011;66191;53.178;22.058;2023-08-21T09:56:07;26.85;;;19.40;;
28246;SDS011;66191;53.178;22.058;2023-08-21T09:58:43;22.75;;;17.75;;
28246;SDS011;66191;53.178;22.058;2023-08-21T10:01:17;23.08;;;17.55;;
28246;SDS011;66191;53.178;22.058;2023-08-21T10:03:52;21.88;;;16.88;;
28246;SDS011;66191;53.178;22.058;2023-08-21T10:06:30;20.63;;;16.23;;
28246;SDS011;66191;53.178;22.058;2023-08-21T10:09:04;20.65;;;15.88;;
28246;SDS011;66191;53.178;22.058;2023-08-21T10:11:38;18.70;;;15.48;;
28246;SDS011;66191;53.178;22.058;2023-08-21T10:14:16;18.83;;;15.55;;
28246;SDS011;66191;53.178;22.058;2023-08-21T10:16:49;18.98;;;15.80;;
28246;SDS011;66191;53.178;22.058;2023-08-21T10:19:22;19.77;;;14.90;;
28246;SDS011;66191;53.178;22.058;2023-08-21T10:21:56;18.25;;;15.05;;
28246;SDS011;66191;53.178;22.058;2023-08-21T10:24:34;25.02;;;15.23;;
28246;SDS011;66191;53.178;22.058;2023-08-21T10:27:12;17.30;;;14.57;;
28246;SDS011;66191;53.178;22.058;2023-08-21T10:29:49;21.27;;;14.63;;
28246;SDS011;66191;53.178;22.058;2023-08-21T10:32:28;19.75;;;13.90;;
28246;SDS011;66191;53.178;22.058;2023-08-21T10:35:03;18.02;;;12.07;;
28246;SDS011;66191;53.178;22.058;2023-08-21T10:40:29;18.83;;;13.68;;
28246;SDS011;66191;53.178;22.058;2023-08-21T10:43:04;16.60;;;12.88;;
28246;SDS011;66191;53.178;22.058;2023-08-21T10:46:02;18.05;;;11.32;;
28246;SDS011;66191;53.178;22.058;2023-08-21T10:48:33;15.68;;;12.07;;
28246;SDS011;66191;53.178;22.058;2023-08-21T10:51:07;14.77;;;12.20;;
28246;SDS011;66191;53.178;22.058;2023-08-21T10:53:45;15.32;;;11.73;;
28246;SDS011;66191;53.178;22.058;2023-08-21T10:56:21;12.93;;;11.02;;
28246;SDS011;66191;53.178;22.058;2023-08-21T10:58:54;14.18;;;11.15;;
28246;SDS011;66191;53.178;22.058;2023-08-21T11:01:28;11.82;;;10.25;;
28246;SDS011;66191;53.178;22.058;2023-08-21T11:04:12;13.50;;;9.60;;
28246;SDS011;66191;53.178;22.058;2023-08-21T11:06:44;12.05;;;8.15;;
28246;SDS011;66191;53.178;22.058;2023-08-21T11:09:18;11.70;;;8.57;;
28246;SDS011;66191;53.178;22.058;2023-08-21T11:11:50;12.30;;;8.18;;
28246;SDS011;66191;53.178;22.058;2023-08-21T11:14:25;9.68;;;6.93;;
28246;SDS011;66191;53.178;22.058;2023-08-21T11:16:59;7.75;;;6.72;;
28246;SDS011;66191;53.178;22.058;2023-08-21T11:19:30;7.25;;;6.45;;
28246;SDS011;66191;53.178;22.058;2023-08-21T11:22:08;7.95;;;6.65;;
28246;SDS011;66191;53.178;22.058;2023-08-21T11:24:40;8.55;;;6.68;;
28246;SDS011;66191;53.178;22.058;2023-08-21T11:27:16;7.22;;;5.70;;
28246;SDS011;66191;53.178;22.058;2023-08-21T11:29:51;7.25;;;6.28;;
28246;SDS011;66191;53.178;22.058;2023-08-21T11:32:25;8.02;;;7.05;;
28246;SDS011;66191;53.178;22.058;2023-08-21T11:34:57;7.10;;;5.68;;
28246;SDS011;66191;53.178;22.058;2023-08-21T11:37:30;8.30;;;6.13;;
28246;SDS011;66191;53.178;22.058;2023-08-21T11:40:06;8.15;;;5.95;;
28246;SDS011;66191;53.178;22.058;2023-08-21T11:42:42;10.70;;;6.85;;
28246;SDS011;66191;53.178;22.058;2023-08-21T11:45:16;7.53;;;6.10;;
28246;SDS011;66191;53.178;22.058;2023-08-21T11:47:55;7.10;;;6.40;;
28246;SDS011;66191;53.178;22.058;2023-08-21T11:50:30;7.60;;;5.88;;
28246;SDS011;66191;53.178;22.058;2023-08-21T11:53:02;7.47;;;6.13;;
28246;SDS011;66191;53.178;22.058;2023-08-21T11:55:34;8.10;;;6.00;;
28246;SDS011;66191;53.178;22.058;2023-08-21T11:58:08;7.80;;;5.65;;
28246;SDS011;66191;53.178;22.058;2023-08-21T12:00:39;6.10;;;5.50;;
28246;SDS011;66191;53.178;22.058;2023-08-21T12:03:20;6.35;;;5.13;;
28246;SDS011;66191;53.178;22.058;2023-08-21T12:05:51;5.97;;;5.40;;
28246;SDS011;66191;53.178;22.058;2023-08-21T12:08:22;7.40;;;5.90;;
28246;SDS011;66191;53.178;22.058;2023-08-21T12:10:56;6.32;;;5.63;;
28246;SDS011;66191;53.178;22.058;2023-08-21T12:13:33;7.15;;;5.97;;
28246;SDS011;66191;53.178;22.058;2023-08-21T12:16:06;7.60;;;6.10;;
28246;SDS011;66191;53.178;22.058;2023-08-21T12:18:40;6.72;;;5.93;;
28246;SDS011;66191;53.178;22.058;2023-08-21T12:21:11;6.47;;;5.78;;
28246;SDS011;66191;53.178;22.058;2023-08-21T12:23:43;9.55;;;5.53;;
28246;SDS011;66191;53.178;22.058;2023-08-21T12:26:17;6.47;;;5.80;;
28246;SDS011;66191;53.178;22.058;2023-08-21T12:28:55;8.13;;;5.25;;
28246;SDS011;66191;53.178;22.058;2023-08-21T12:31:26;6.38;;;4.78;;
28246;SDS011;66191;53.178;22.058;2023-08-21T12:34:01;5.65;;;4.50;;
28246;SDS011;66191;53.178;22.058;2023-08-21T12:36:33;6.40;;;4.82;;
28246;SDS011;66191;53.178;22.058;2023-08-21T12:39:06;8.27;;;4.68;;
28246;SDS011;66191;53.178;22.058;2023-08-21T12:41:40;7.65;;;5.07;;
28246;SDS011;66191;53.178;22.058;2023-08-21T12:44:14;7.38;;;4.80;;
28246;SDS011;66191;53.178;22.058;2023-08-21T12:46:49;6.75;;;4.10;;
28246;SDS011;66191;53.178;22.058;2023-08-21T12:49:23;4.78;;;3.90;;
28246;SDS011;66191;53.178;22.058;2023-08-21T12:51:54;8.02;;;4.53;;
28246;SDS011;66191;53.178;22.058;2023-08-21T12:54:28;5.75;;;4.30;;
28246;SDS011;66191;53.178;22.058;2023-08-21T12:57:00;8.55;;;3.88;;
28246;SDS011;66191;53.178;22.058;2023-08-21T12:59:34;6.43;;;4.10;;
28246;SDS011;66191;53.178;22.058;2023-08-21T13:02:06;6.30;;;3.65;;
28246;SDS011;66191;53.178;22.058;2023-08-21T13:04:42;5.32;;;3.70;;
28246;SDS011;66191;53.178;22.058;2023-08-21T13:07:13;6.32;;;4.35;;
28246;SDS011;66191;53.178;22.058;2023-08-21T13:09:45;4.13;;;3.58;;
28246;SDS011;66191;53.178;22.058;2023-08-21T13:12:17;4.50;;;3.70;;
28246;SDS011;66191;53.178;22.058;2023-08-21T13:14:49;5.78;;;3.90;;
28246;SDS011;66191;53.178;22.058;2023-08-21T13:17:21;7.13;;;4.10;;
28246;SDS011;66191;53.178;22.058;2023-08-21T13:19:58;4.75;;;3.88;;
28246;SDS011;66191;53.178;22.058;2023-08-21T13:22:29;6.85;;;4.05;;
28246;SDS011;66191;53.178;22.058;2023-08-21T13:25:17;4.88;;;3.90;;
28246;SDS011;66191;53.178;22.058;2023-08-21T13:27:51;4.20;;;3.30;;
28246;SDS011;66191;53.178;22.058;2023-08-21T13:30:23;4.65;;;4.25;;
28246;SDS011;66191;53.178;22.058;2023-08-21T13:32:56;3.70;;;3.40;;
28246;SDS011;66191;53.178;22.058;2023-08-21T13:35:30;5.22;;;3.55;;
28246;SDS011;66191;53.178;22.058;2023-08-21T13:38:11;7.22;;;3.45;;
28246;SDS011;66191;53.178;22.058;2023-08-21T13:40:43;6.05;;;3.03;;
28246;SDS011;66191;53.178;22.058;2023-08-21T13:43:14;4.80;;;2.92;;
28246;SDS011;66191;53.178;22.058;2023-08-21T13:45:59;5.13;;;3.00;;
28246;SDS011;66191;53.178;22.058;2023-08-21T13:48:34;4.60;;;2.60;;
28246;SDS011;66191;53.178;22.058;2023-08-21T13:51:15;3.55;;;2.45;;
28246;SDS011;66191;53.178;22.058;2023-08-21T13:53:48;4.85;;;2.50;;
28246;SDS011;66191;53.178;22.058;2023-08-21T13:56:19;2.58;;;2.30;;
28246;SDS011;66191;53.178;22.058;2023-08-21T13:58:53;5.43;;;2.40;;
28246;SDS011;66191;53.178;22.058;2023-08-21T14:01:29;2.78;;;2.55;;
28246;SDS011;66191;53.178;22.058;2023-08-21T14:04:00;5.35;;;2.55;;
28246;SDS011;66191;53.178;22.058;2023-08-21T14:06:38;44.97;;;26.42;;
28246;SDS011;66191;53.178;22.058;2023-08-21T14:09:09;4.75;;;3.67;;
28246;SDS011;66191;53.178;22.058;2023-08-21T14:11:43;6.45;;;5.40;;
28246;SDS011;66191;53.178;22.058;2023-08-21T14:14:20;3.65;;;3.20;;
28246;SDS011;66191;53.178;22.058;2023-08-21T14:16:53;7.47;;;3.35;;
28246;SDS011;66191;53.178;22.058;2023-08-21T14:19:26;2.85;;;2.42;;
28246;SDS011;66191;53.178;22.058;2023-08-21T14:22:00;7.78;;;6.50;;
28246;SDS011;66191;53.178;22.058;2023-08-21T14:24:32;11.30;;;3.13;;
28246;SDS011;66191;53.178;22.058;2023-08-21T14:27:04;10.38;;;3.85;;
28246;SDS011;66191;53.178;22.058;2023-08-21T14:29:35;11.20;;;4.68;;
28246;SDS011;66191;53.178;22.058;2023-08-21T14:32:07;7.13;;;6.32;;
28246;SDS011;66191;53.178;22.058;2023-08-21T14:34:48;5.82;;;3.95;;
28246;SDS011;66191;53.178;22.058;2023-08-21T14:37:24;5.18;;;4.68;;
28246;SDS011;66191;53.178;22.058;2023-08-21T14:39:56;5.32;;;2.47;;
28246;SDS011;66191;53.178;22.058;2023-08-21T14:42:31;11.50;;;6.32;;
28246;SDS011;66191;53.178;22.058;2023-08-21T14:45:03;3.85;;;2.30;;
28246;SDS011;66191;53.178;22.058;2023-08-21T14:47:46;6.72;;;2.33;;
28246;SDS011;66191;53.178;22.058;2023-08-21T14:50:20;8.25;;;2.67;;
28246;SDS011;66191;53.178;22.058;2023-08-21T14:52:56;9.88;;;2.83;;
28246;SDS011;66191;53.178;22.058;2023-08-21T14:55:27;15.38;;;5.72;;
28246;SDS011;66191;53.178;22.058;2023-08-21T14:58:00;14.77;;;7.13;;
28246;SDS011;66191;53.178;22.058;2023-08-21T15:00:36;3.78;;;2.20;;
28246;SDS011;66191;53.178;22.058;2023-08-21T15:03:09;7.38;;;2.72;;
28246;SDS011;66191;53.178;22.058;2023-08-21T15:05:50;13.32;;;2.97;;
28246;SDS011;66191;53.178;22.058;2023-08-21T15:08:24;7.75;;;3.10;;
28246;SDS011;66191;53.178;22.058;2023-08-21T15:10:55;3.55;;;1.80;;
28246;SDS011;66191;53.178;22.058;2023-08-21T15:13:27;20.73;;;10.77;;